Time;durP1;ratioP1;P1;durP2;ratioP2;P2;SDS_P1;SDS_P2;PMS_P1;PMS_P2;Temp;Humidity;BMP_temperature;BMP_pressure;BME280_temperature;BME280_humidity;BME280_pressure;Samples;Min_cycle;Max_cycle;Signal;HPM_P1;HPM_P2
2022/07/05 00:00:45;;;;;;;3.87;3.57;;;;;25.20;100986.00;;;;2070933;28;20261;-50
2022/07/05 00:01:45;;;;;;;3.30;2.90;;;;;25.10;100990.00;;;;2071239;28;20329;-49
2022/07/05 00:02:46;;;;;;;3.87;3.47;;;;;25.10;100986.00;;;;2071298;28;20225;-50
2022/07/05 00:03:46;;;;;;;3.17;2.87;;;;;25.10;100999.00;;;;2070763;28;20301;-50
2022/07/05 00:04:46;;;;;;;3.70;3.03;;;;;25.10;100995.00;;;;2071147;28;20215;-50
2022/07/05 00:05:47;;;;;;;3.80;3.10;;;;;25.20;100995.00;;;;2076707;28;20210;-49
2022/07/05 00:08:06;;;;;;;3.95;3.53;;;;;25.20;100993.00;;;;2078155;28;20217;-50
2022/07/05 00:09:07;;;;;;;4.27;3.00;;;;;25.20;100993.00;;;;2078682;28;20769;-49
2022/07/05 00:10:07;;;;;;;3.70;3.13;;;;;25.20;100999.00;;;;2078328;28;20209;-51
2022/07/05 00:11:08;;;;;;;4.20;3.10;;;;;25.20;100988.00;;;;2078443;28;20216;-50
2022/07/05 00:12:08;;;;;;;4.43;3.63;;;;;25.20;100985.00;;;;2078015;28;20218;-50
2022/07/05 00:13:08;;;;;;;6.13;3.30;;;;;25.20;100993.00;;;;2078356;28;20260;-50
2022/07/05 00:14:09;;;;;;;3.90;3.03;;;;;25.20;100986.00;;;;2078607;28;20220;-50
2022/07/05 00:15:09;;;;;;;3.57;3.20;;;;;25.20;100991.00;;;;2078915;28;20205;-49
2022/07/05 00:16:10;;;;;;;3.70;3.23;;;;;25.20;100987.00;;;;2076747;28;20209;-50
2022/07/05 00:17:11;;;;;;;4.93;2.60;;;;;25.10;100989.00;;;;2070508;28;20205;-50
2022/07/05 00:18:11;;;;;;;5.60;3.05;;;;;25.20;100990.00;;;;2069806;28;20272;-50
2022/07/05 00:19:11;;;;;;;5.03;3.00;;;;;25.20;100986.00;;;;2070900;28;20254;-50
2022/07/05 00:20:12;;;;;;;3.30;3.00;;;;;25.10;100985.00;;;;2071084;28;20216;-51
2022/07/05 00:21:12;;;;;;;4.07;2.80;;;;;25.10;100989.00;;;;2070891;28;20297;-50
2022/07/05 00:22:13;;;;;;;5.87;2.50;;;;;25.10;100985.00;;;;2070940;28;20286;-48
2022/07/05 00:23:13;;;;;;;4.23;3.00;;;;;25.10;100984.00;;;;2071050;28;20210;-50
2022/07/05 00:24:13;;;;;;;2.77;2.43;;;;;25.10;100986.00;;;;2070923;28;20741;-50
2022/07/05 00:25:14;;;;;;;5.10;2.67;;;;;25.10;100984.00;;;;2071014;28;20229;-50
2022/07/05 00:26:15;;;;;;;2.87;2.57;;;;;25.10;100957.00;;;;2071095;28;20253;-50
2022/07/05 00:27:15;;;;;;;4.77;2.93;;;;;25.10;100931.00;;;;2070657;28;20441;-49
2022/07/05 00:28:15;;;;;;;2.90;2.40;;;;;25.10;100991.00;;;;2070360;28;20280;-49
2022/07/05 00:29:16;;;;;;;4.77;2.53;;;;;25.10;100995.00;;;;2070603;28;20665;-50
2022/07/05 00:30:16;;;;;;;3.63;2.73;;;;;25.10;100990.00;;;;2071110;28;20214;-49
2022/07/05 00:31:16;;;;;;;4.53;2.60;;;;;25.10;100991.00;;;;2070798;28;20210;-50
2022/07/05 00:32:17;;;;;;;3.90;2.60;;;;;25.10;100999.00;;;;2070905;28;20218;-50
2022/07/05 00:33:17;;;;;;;2.90;2.30;;;;;25.10;100990.00;;;;2070804;28;20703;-50
2022/07/05 00:34:17;;;;;;;3.67;2.43;;;;;25.10;100983.00;;;;2070319;28;20639;-49
2022/07/05 00:35:18;;;;;;;3.73;2.77;;;;;25.10;100992.00;;;;2070086;28;20603;-49
2022/07/05 00:36:18;;;;;;;4.00;2.50;;;;;25.10;100982.00;;;;2070080;28;20202;-50
2022/07/05 00:37:18;;;;;;;3.00;2.43;;;;;25.10;100980.00;;;;2070542;28;20214;-51
2022/07/05 00:38:19;;;;;;;3.00;2.47;;;;;25.10;100976.00;;;;2070442;28;20230;-50
2022/07/05 00:39:19;;;;;;;2.50;2.30;;;;;25.10;100981.00;;;;2070011;28;20230;-49
2022/07/05 00:40:19;;;;;;;2.47;2.27;;;;;25.10;100980.00;;;;2070784;28;20261;-50
2022/07/05 00:41:19;;;;;;;2.20;2.00;;;;;25.10;100985.00;;;;2071066;28;20210;-49
2022/07/05 00:42:20;;;;;;;2.97;2.10;;;;;25.10;100985.00;;;;2070901;28;20241;-50
2022/07/05 00:43:20;;;;;;;4.83;2.87;;;;;25.10;100985.00;;;;2070684;28;20209;-50
2022/07/05 00:44:31;;;;;;;1.77;1.67;;;;;25.10;100985.00;;;;2070772;28;20252;-50
2022/07/05 00:45:31;;;;;;;2.80;2.33;;;;;25.10;100985.00;;;;2070632;28;20910;-51
2022/07/05 00:46:32;;;;;;;2.50;2.30;;;;;25.00;100985.00;;;;2070822;28;20229;-49
2022/07/05 00:47:32;;;;;;;2.33;2.13;;;;;25.10;100996.00;;;;2070150;28;20226;-50
2022/07/05 00:48:32;;;;;;;3.10;2.23;;;;;25.10;100989.00;;;;2070797;28;20229;-50
2022/07/05 00:49:33;;;;;;;3.10;2.13;;;;;25.10;100996.00;;;;2070747;28;20238;-50
2022/07/05 00:50:33;;;;;;;2.40;2.20;;;;;25.10;100998.00;;;;2070759;28;20230;-50
2022/07/05 00:51:37;;;;;;;3.33;2.40;;;;;25.10;100989.00;;;;2070904;28;20659;-50
2022/07/05 00:52:38;;;;;;;2.95;1.92;;;;;25.10;100997.00;;;;2069749;28;20888;-51
2022/07/05 00:53:38;;;;;;;2.47;2.10;;;;;25.10;100999.00;;;;2069667;28;20337;-50
2022/07/05 00:54:39;;;;;;;4.10;2.17;;;;;25.10;101008.00;;;;2070573;28;20229;-50
2022/07/05 00:55:39;;;;;;;2.23;2.03;;;;;25.00;100996.00;;;;2070793;28;20224;-50
2022/07/05 00:56:40;;;;;;;2.13;1.93;;;;;25.10;100999.00;;;;2070973;28;20218;-50
2022/07/05 00:57:40;;;;;;;3.13;2.17;;;;;25.00;100994.00;;;;2069872;28;20222;-50
2022/07/05 00:58:40;;;;;;;2.13;1.93;;;;;25.10;101004.00;;;;2069635;28;20242;-50
2022/07/05 00:59:41;;;;;;;2.60;1.87;;;;;25.10;101004.00;;;;2066421;28;20214;-50
2022/07/05 01:00:41;;;;;;;2.40;2.00;;;;;25.10;100994.00;;;;2070054;28;20249;-50
2022/07/05 01:01:41;;;;;;;2.17;1.97;;;;;25.00;100993.00;;;;2062137;28;20220;-50
2022/07/05 01:02:42;;;;;;;2.97;2.00;;;;;25.00;101001.00;;;;2059643;28;21012;-51
2022/07/05 01:03:43;;;;;;;3.30;2.40;;;;;25.10;100996.00;;;;2078130;28;20916;-50
2022/07/05 01:04:43;;;;;;;2.07;1.73;;;;;25.10;100998.00;;;;2072055;28;20702;-50
2022/07/05 01:05:43;;;;;;;2.47;2.00;;;;;25.10;100992.00;;;;2070647;28;20458;-50
2022/07/05 01:06:46;;;;;;;3.67;1.90;;;;;25.10;100997.00;;;;2061855;28;20217;-50
2022/07/05 01:07:47;;;;;;;4.07;2.30;;;;;25.10;100989.00;;;;2061625;28;20306;-50
2022/07/05 01:08:47;;;;;;;2.70;1.93;;;;;25.10;100996.00;;;;2077624;28;20267;-50
2022/07/05 01:09:47;;;;;;;2.10;1.90;;;;;25.10;101000.00;;;;2070762;28;20449;-50
2022/07/05 01:10:48;;;;;;;2.33;2.07;;;;;25.00;100994.00;;;;2070034;28;20301;-50
2022/07/05 01:11:49;;;;;;;2.23;1.80;;;;;25.00;101001.00;;;;2061679;28;20203;-50
2022/07/05 01:12:49;;;;;;;5.13;2.33;;;;;25.10;100991.00;;;;2061616;28;20233;-50
2022/07/05 01:13:50;;;;;;;2.00;1.80;;;;;25.10;100996.00;;;;2069973;28;20206;-50
2022/07/05 01:14:50;;;;;;;2.00;1.63;;;;;25.00;100978.00;;;;2069741;28;20264;-50
2022/07/05 01:15:50;;;;;;;2.87;2.13;;;;;25.00;100998.00;;;;2069820;28;20210;-50
2022/07/05 01:16:52;;;;;;;1.93;1.73;;;;;25.00;100998.00;;;;2061303;28;20215;-49
2022/07/05 01:17:52;;;;;;;2.50;1.90;;;;;25.10;100997.00;;;;2068489;28;20638;-50
2022/07/05 01:18:52;;;;;;;2.50;2.13;;;;;25.10;101002.00;;;;2067930;28;20292;-50
2022/07/05 01:19:53;;;;;;;2.30;2.10;;;;;25.10;100998.00;;;;2068776;28;20218;-50
2022/07/05 01:20:53;;;;;;;2.50;2.10;;;;;25.00;100996.00;;;;2061517;28;20214;-50
2022/07/05 01:21:54;;;;;;;2.93;1.80;;;;;25.00;100914.00;;;;2061218;28;20301;-50
2022/07/05 01:22:55;;;;;;;2.53;1.73;;;;;25.10;100996.00;;;;2059519;28;20593;-50
2022/07/05 01:23:55;;;;;;;2.50;1.95;;;;;25.10;100998.00;;;;2069921;28;20210;-49
2022/07/05 01:24:56;;;;;;;2.23;1.93;;;;;25.10;101000.00;;;;2070699;28;20225;-49
2022/07/05 01:25:57;;;;;;;2.67;1.73;;;;;25.00;101002.00;;;;2070527;28;20238;-50
2022/07/05 01:26:57;;;;;;;2.53;1.63;;;;;25.00;100981.00;;;;2069901;28;20220;-50
2022/07/05 01:27:58;;;;;;;2.50;1.73;;;;;25.00;100997.00;;;;2060667;28;20219;-49
2022/07/05 01:28:58;;;;;;;2.80;2.10;;;;;25.00;100999.00;;;;2069814;28;20292;-49
2022/07/05 01:29:59;;;;;;;3.23;1.77;;;;;25.00;101004.00;;;;2070646;28;20464;-50
2022/07/05 01:31:02;;;;;;;2.10;1.73;;;;;25.00;100998.00;;;;2070667;28;20210;-49
2022/07/05 01:32:03;;;;;;;2.33;1.77;;;;;25.00;100997.00;;;;2078374;28;20215;-49
2022/07/05 01:33:04;;;;;;;1.77;1.67;;;;;25.00;101000.00;;;;2078876;28;20467;-49
2022/07/05 01:34:05;;;;;;;1.70;1.52;;;;;25.00;100991.00;;;;2078663;28;20217;-49
2022/07/05 01:35:07;;;;;;;2.13;1.93;;;;;25.00;100986.00;;;;2078761;28;20304;-49
2022/07/05 01:36:10;;;;;;;3.08;2.45;;;;;25.00;100999.00;;;;2069849;28;20457;-49
2022/07/05 01:37:10;;;;;;;1.70;1.60;;;;;25.00;101005.00;;;;2062123;28;20238;-49
2022/07/05 01:38:11;;;;;;;2.37;1.90;;;;;25.00;100979.00;;;;2060507;28;20957;-49
2022/07/05 01:39:12;;;;;;;2.33;1.80;;;;;25.00;100998.00;;;;2061709;28;20368;-49
2022/07/05 01:40:12;;;;;;;1.77;1.67;;;;;25.00;100998.00;;;;2069967;28;20229;-49
2022/07/05 01:41:12;;;;;;;1.97;1.77;;;;;25.00;100992.00;;;;2069776;28;20213;-49
2022/07/05 01:42:13;;;;;;;1.60;1.37;;;;;25.00;100998.00;;;;2061685;28;20297;-49
2022/07/05 01:43:13;;;;;;;2.10;1.90;;;;;25.00;101002.00;;;;2069876;28;20220;-49
2022/07/05 01:44:13;;;;;;;1.70;1.60;;;;;25.00;100994.00;;;;2069721;28;20214;-49
2022/07/05 01:45:38;;;;;;;1.77;1.60;;;;;25.00;101001.00;;;;2069835;28;20238;-49
2022/07/05 01:46:38;;;;;;;1.85;1.60;;;;;25.00;100991.00;;;;2067407;28;20655;-50
2022/07/05 01:47:44;;;;;;;2.38;1.80;;;;;25.00;101008.00;;;;2060970;28;20222;-49
2022/07/05 01:48:44;;;;;;;1.70;1.60;;;;;25.00;101006.00;;;;2055402;28;20247;-49
2022/07/05 01:49:46;;;;;;;2.47;1.70;;;;;25.00;101001.00;;;;2069985;28;20214;-49
2022/07/05 01:51:06;;;;;;;2.40;2.08;;;;;25.00;101008.00;;;;2070010;28;20214;-52
2022/07/05 01:52:09;;;;;;;1.88;1.77;;;;;25.00;101001.00;;;;2073947;28;20649;-49
2022/07/05 01:53:14;;;;;;;1.67;1.30;;;;;25.00;100983.00;;;;2077926;28;20217;-49
2022/07/05 01:54:14;;;;;;;1.55;1.45;;;;;25.00;100950.00;;;;2077898;28;20213;-49
2022/07/05 01:55:14;;;;;;;1.60;1.50;;;;;25.00;100949.00;;;;2070257;28;20237;-49
2022/07/05 01:56:15;;;;;;;1.90;1.77;;;;;25.00;101010.00;;;;2077966;28;20801;-49
2022/07/05 01:57:15;;;;;;;1.70;1.60;;;;;25.00;100996.00;;;;2077130;28;20312;-50
2022/07/05 01:58:16;;;;;;;2.10;1.67;;;;;25.00;100994.00;;;;2077781;28;20224;-49
2022/07/05 01:59:16;;;;;;;1.87;1.50;;;;;25.00;101001.00;;;;2078446;28;20217;-49
2022/07/05 02:00:16;;;;;;;1.90;1.70;;;;;25.00;100996.00;;;;2071254;28;20214;-49
2022/07/05 02:01:37;;;;;;;1.70;1.60;;;;;25.00;100987.00;;;;2069734;28;20206;-50
2022/07/05 02:02:40;;;;;;;2.00;1.90;;;;;25.00;100990.00;;;;2069713;28;21002;-49
2022/07/05 02:03:41;;;;;;;2.22;1.80;;;;;25.00;100991.00;;;;2074873;28;20228;-49
2022/07/05 02:04:41;;;;;;;1.47;1.37;;;;;25.00;100993.00;;;;2078668;28;20210;-49
2022/07/05 02:05:42;;;;;;;1.73;1.50;;;;;25.00;100988.00;;;;2079751;28;20224;-49
2022/07/05 02:06:45;;;;;;;2.63;1.60;;;;;25.00;100983.00;;;;2080246;28;20933;-49
2022/07/05 02:07:49;;;;;;;2.00;1.65;;;;;25.00;100987.00;;;;2079454;28;20240;-49
2022/07/05 02:08:49;;;;;;;3.30;1.80;;;;;25.00;100988.00;;;;2079751;28;20216;-51
2022/07/05 02:09:49;;;;;;;2.50;1.93;;;;;25.00;100989.00;;;;2079053;28;20205;-50
2022/07/05 02:10:50;;;;;;;2.40;1.70;;;;;25.00;100984.00;;;;2077451;28;20378;-50
2022/07/05 02:11:51;;;;;;;1.60;1.50;;;;;25.00;100983.00;;;;2078534;28;20290;-50
2022/07/05 02:12:51;;;;;;;2.63;1.70;;;;;25.00;100979.00;;;;2080283;28;20213;-49
2022/07/05 02:13:51;;;;;;;1.80;1.50;;;;;25.00;100995.00;;;;2079925;28;20484;-50
2022/07/05 02:14:51;;;;;;;1.93;1.20;;;;;25.00;100986.00;;;;2080013;28;20213;-50
2022/07/05 02:15:52;;;;;;;1.70;1.50;;;;;25.00;100981.00;;;;2078653;28;20202;-50
2022/07/05 02:16:52;;;;;;;3.30;1.60;;;;;25.00;100986.00;;;;2072051;28;20276;-50
2022/07/05 02:17:53;;;;;;;4.80;1.70;;;;;25.00;100981.00;;;;2071397;28;20241;-50
2022/07/05 02:18:53;;;;;;;1.93;1.30;;;;;25.00;100984.00;;;;2071898;28;20622;-50
2022/07/05 02:19:53;;;;;;;1.43;1.33;;;;;25.00;100981.00;;;;2071825;28;20604;-49
2022/07/05 02:20:54;;;;;;;2.23;1.80;;;;;25.00;100992.00;;;;2072003;28;20212;-50
2022/07/05 02:21:54;;;;;;;2.30;1.60;;;;;25.00;100981.00;;;;2072015;28;20210;-49
2022/07/05 02:22:54;;;;;;;2.57;1.60;;;;;24.60;100985.00;;;;2072149;28;20300;-50
2022/07/05 02:23:55;;;;;;;3.27;1.87;;;;;25.00;100990.00;;;;2071962;28;20256;-50
2022/07/05 02:24:55;;;;;;;2.23;1.77;;;;;25.00;100985.00;;;;2071802;28;20609;-50
2022/07/05 02:25:55;;;;;;;2.50;1.50;;;;;25.00;100985.00;;;;2078787;28;20580;-51
2022/07/05 02:26:56;;;;;;;1.37;1.20;;;;;25.00;100967.00;;;;2080128;28;20209;-50
2022/07/05 02:27:56;;;;;;;3.03;1.70;;;;;25.00;100997.00;;;;2078365;28;20217;-49
2022/07/05 02:28:56;;;;;;;1.60;1.20;;;;;25.00;100992.00;;;;2076945;28;20348;-50
2022/07/05 02:29:57;;;;;;;1.90;1.60;;;;;25.00;100986.00;;;;2079271;28;20209;-49
2022/07/05 02:30:57;;;;;;;2.33;1.70;;;;;25.00;100988.00;;;;2079387;28;20210;-49
2022/07/05 02:31:57;;;;;;;3.13;1.90;;;;;25.00;101005.00;;;;2079408;28;20748;-49
2022/07/05 02:32:58;;;;;;;2.20;2.00;;;;;25.00;100997.00;;;;2071954;28;20678;-49
2022/07/05 02:33:58;;;;;;;1.97;1.70;;;;;25.00;100995.00;;;;2072072;28;20681;-49
2022/07/05 02:34:59;;;;;;;2.10;1.70;;;;;25.00;100987.00;;;;2071814;28;20214;-50
2022/07/05 02:36:09;;;;;;;1.57;1.40;;;;;25.00;100988.00;;;;2069808;28;20210;-49
2022/07/05 02:37:09;;;;;;;1.80;1.50;;;;;25.00;100990.00;;;;2071818;28;20709;-49
2022/07/05 02:38:10;;;;;;;1.90;1.50;;;;;25.00;100994.00;;;;2070872;28;20214;-49
2022/07/05 02:39:10;;;;;;;2.43;1.40;;;;;25.00;100982.00;;;;2071611;28;20226;-49
2022/07/05 02:40:12;;;;;;;1.60;1.40;;;;;25.00;100985.00;;;;2072011;28;20234;-49
2022/07/05 02:41:12;;;;;;;1.52;1.42;;;;;25.00;100991.00;;;;2072052;28;20214;-49
2022/07/05 02:42:12;;;;;;;1.90;1.53;;;;;25.00;100995.00;;;;2071106;28;20577;-49
2022/07/05 02:43:13;;;;;;;2.63;2.00;;;;;25.00;100988.00;;;;2075297;28;20209;-49
2022/07/05 02:44:13;;;;;;;1.90;1.63;;;;;25.00;100995.00;;;;2079189;28;22572;-49
2022/07/05 02:45:13;;;;;;;3.00;1.60;;;;;25.00;100991.00;;;;2079692;28;20332;-50
2022/07/05 02:46:14;;;;;;;2.10;1.50;;;;;25.00;100985.00;;;;2079978;28;20332;-49
2022/07/05 02:47:14;;;;;;;1.40;1.20;;;;;25.00;100982.00;;;;2079681;28;20279;-49
2022/07/05 02:48:14;;;;;;;2.03;1.80;;;;;25.00;100982.00;;;;2079728;28;20309;-49
2022/07/05 02:49:15;;;;;;;3.10;1.57;;;;;24.90;100981.00;;;;2079484;28;20271;-50
2022/07/05 02:50:15;;;;;;;1.90;1.60;;;;;24.90;100981.00;;;;2079891;28;20225;-49
2022/07/05 02:51:16;;;;;;;1.70;1.53;;;;;25.00;100981.00;;;;2079784;28;20283;-49
2022/07/05 02:52:16;;;;;;;2.43;1.90;;;;;24.90;100986.00;;;;2078881;28;20218;-49
2022/07/05 02:53:16;;;;;;;2.17;1.90;;;;;25.00;100982.00;;;;2071430;28;20479;-49
2022/07/05 02:54:17;;;;;;;1.70;1.60;;;;;24.90;100983.00;;;;2071761;28;20210;-49
2022/07/05 02:55:17;;;;;;;1.80;1.60;;;;;25.00;100985.00;;;;2071712;28;20352;-49
2022/07/05 02:56:17;;;;;;;2.17;1.70;;;;;25.00;100989.00;;;;2071709;28;20217;-50
2022/07/05 02:57:18;;;;;;;1.57;1.47;;;;;25.00;100985.00;;;;2071220;28;20214;-49
2022/07/05 02:58:18;;;;;;;1.50;1.40;;;;;24.90;100990.00;;;;2071255;28;20241;-50
2022/07/05 02:59:18;;;;;;;2.00;1.80;;;;;24.90;100994.00;;;;2071850;28;20217;-49
2022/07/05 03:00:19;;;;;;;1.53;1.20;;;;;24.90;100999.00;;;;2079660;28;20296;-49
2022/07/05 03:01:19;;;;;;;1.40;1.30;;;;;24.90;101000.00;;;;2079705;28;20213;-49
2022/07/05 03:02:20;;;;;;;2.00;1.20;;;;;24.90;100997.00;;;;2079986;28;20216;-49
2022/07/05 03:03:20;;;;;;;1.67;1.50;;;;;25.00;100999.00;;;;2079660;28;20241;-49
2022/07/05 03:04:20;;;;;;;1.97;1.47;;;;;25.00;101001.00;;;;2079550;28;20623;-49
2022/07/05 03:05:21;;;;;;;1.60;1.33;;;;;24.90;100995.00;;;;2079823;28;20658;-49
2022/07/05 03:06:21;;;;;;;1.80;1.50;;;;;24.90;101000.00;;;;2079849;28;20811;-50
2022/07/05 03:07:21;;;;;;;2.20;2.00;;;;;25.00;100997.00;;;;2079205;28;20233;-49
2022/07/05 03:08:22;;;;;;;1.87;1.60;;;;;24.90;100997.00;;;;2079490;28;20221;-49
2022/07/05 03:09:22;;;;;;;1.60;1.50;;;;;24.90;100995.00;;;;2079639;28;20561;-49
2022/07/05 03:10:22;;;;;;;1.90;1.50;;;;;24.90;101005.00;;;;2079922;28;20605;-49
2022/07/05 03:11:23;;;;;;;2.73;1.97;;;;;24.90;101005.00;;;;2079938;28;20670;-50
2022/07/05 03:12:23;;;;;;;1.60;1.30;;;;;24.90;100982.00;;;;2079673;28;20206;-49
2022/07/05 03:13:23;;;;;;;1.30;1.20;;;;;24.90;101005.00;;;;2067794;28;20683;-50
2022/07/05 03:14:25;;;;;;;1.30;1.10;;;;;24.90;101003.00;;;;2071345;28;21279;-50
2022/07/05 03:15:25;;;;;;;1.98;1.58;;;;;25.00;101010.00;;;;2071025;28;20224;-50
2022/07/05 03:16:26;;;;;;;1.37;1.20;;;;;25.00;101001.00;;;;2071075;28;20883;-50
2022/07/05 03:17:26;;;;;;;2.07;1.63;;;;;25.00;101000.00;;;;2061734;28;20269;-49
2022/07/05 03:18:26;;;;;;;1.73;1.40;;;;;24.90;100996.00;;;;2062835;28;20629;-50
2022/07/05 03:19:27;;;;;;;2.20;1.40;;;;;24.90;101003.00;;;;2071445;28;20242;-49
2022/07/05 03:20:27;;;;;;;2.17;1.60;;;;;24.90;100996.00;;;;2071567;28;20624;-49
2022/07/05 03:21:27;;;;;;;1.40;1.20;;;;;24.90;101004.00;;;;2072506;28;20585;-50
2022/07/05 03:22:28;;;;;;;2.90;2.00;;;;;24.90;101008.00;;;;2079144;28;20800;-50
2022/07/05 03:23:28;;;;;;;1.40;1.30;;;;;24.90;101016.00;;;;2079613;28;20665;-50
2022/07/05 03:24:28;;;;;;;2.00;1.50;;;;;24.90;101006.00;;;;2079656;28;20669;-49
2022/07/05 03:25:29;;;;;;;2.33;1.87;;;;;24.90;101016.00;;;;2079792;28;20580;-49
2022/07/05 03:26:29;;;;;;;3.20;1.73;;;;;24.90;101014.00;;;;2079742;28;20635;-49
2022/07/05 03:27:29;;;;;;;1.40;1.30;;;;;24.90;101007.00;;;;2078561;28;20669;-49
2022/07/05 03:28:30;;;;;;;2.20;1.67;;;;;24.90;101013.00;;;;2079569;28;20724;-49
2022/07/05 03:29:30;;;;;;;1.77;1.43;;;;;24.90;101010.00;;;;2079557;28;20923;-49
2022/07/05 03:30:30;;;;;;;1.40;1.30;;;;;24.90;101007.00;;;;2079829;28;20597;-49
2022/07/05 03:31:31;;;;;;;1.47;1.23;;;;;24.90;101013.00;;;;2078864;28;20721;-49
2022/07/05 03:32:31;;;;;;;1.77;1.57;;;;;24.90;101003.00;;;;2079232;28;21343;-50
2022/07/05 03:33:31;;;;;;;1.80;1.60;;;;;24.90;101006.00;;;;2078736;28;21647;-55
2022/07/05 03:34:32;;;;;;;1.63;1.40;;;;;24.90;101004.00;;;;2079448;28;20244;-51
2022/07/05 03:35:32;;;;;;;1.80;1.53;;;;;24.90;101007.00;;;;2079412;28;20218;-52
2022/07/05 03:36:32;;;;;;;1.60;1.50;;;;;24.90;101014.00;;;;2079768;28;20241;-51
2022/07/05 03:37:33;;;;;;;1.47;1.37;;;;;24.90;101015.00;;;;2078764;28;20221;-51
2022/07/05 03:38:33;;;;;;;3.30;1.37;;;;;24.90;101009.00;;;;2079516;28;20721;-50
2022/07/05 03:39:33;;;;;;;1.60;1.50;;;;;24.90;101015.00;;;;2079415;28;20217;-51
2022/07/05 03:40:34;;;;;;;1.77;1.60;;;;;24.90;101009.00;;;;2079568;28;20217;-50
2022/07/05 03:41:34;;;;;;;3.60;1.60;;;;;24.90;101005.00;;;;2079131;28;20218;-50
2022/07/05 03:42:35;;;;;;;1.70;1.40;;;;;24.90;101011.00;;;;2079440;28;20230;-50
2022/07/05 03:43:35;;;;;;;1.93;1.40;;;;;24.90;101016.00;;;;2079625;28;20230;-50
2022/07/05 03:44:35;;;;;;;2.17;1.47;;;;;24.90;101003.00;;;;2079222;28;20646;-49
2022/07/05 03:45:36;;;;;;;1.93;1.33;;;;;24.90;101012.00;;;;2078937;28;20221;-50
2022/07/05 03:46:36;;;;;;;1.93;1.50;;;;;24.90;101019.00;;;;2079568;28;20696;-50
2022/07/05 03:47:36;;;;;;;1.70;1.50;;;;;24.90;101010.00;;;;2078764;28;20677;-50
2022/07/05 03:48:37;;;;;;;1.80;1.60;;;;;24.90;101011.00;;;;2079459;28;20735;-50
2022/07/05 03:49:37;;;;;;;1.40;1.20;;;;;24.90;101011.00;;;;2078490;28;20222;-50
2022/07/05 03:50:37;;;;;;;1.67;1.47;;;;;24.90;101009.00;;;;2079484;28;20232;-50
2022/07/05 03:51:38;;;;;;;3.83;1.63;;;;;24.90;101009.00;;;;2079170;28;20224;-50
2022/07/05 03:52:38;;;;;;;2.43;1.40;;;;;24.90;101008.00;;;;2079405;28;20217;-50
2022/07/05 03:53:38;;;;;;;3.20;1.57;;;;;24.90;101008.00;;;;2079572;28;20249;-50
2022/07/05 03:54:39;;;;;;;2.20;1.70;;;;;24.90;101011.00;;;;2076130;28;20229;-49
2022/07/05 03:55:39;;;;;;;1.70;1.60;;;;;24.90;101011.00;;;;2079068;28;20217;-50
2022/07/05 03:56:39;;;;;;;1.40;1.30;;;;;24.90;101012.00;;;;2078877;28;20217;-50
2022/07/05 03:57:40;;;;;;;1.40;1.20;;;;;24.90;101012.00;;;;2077890;28;20751;-50
2022/07/05 03:58:40;;;;;;;1.60;1.50;;;;;24.90;101019.00;;;;2078750;28;20253;-50
2022/07/05 03:59:40;;;;;;;1.53;1.43;;;;;24.90;101015.00;;;;2079008;28;20217;-50
2022/07/05 04:00:41;;;;;;;1.57;1.33;;;;;24.90;101019.00;;;;2079361;28;20268;-50
2022/07/05 04:01:41;;;;;;;1.37;1.20;;;;;24.90;101013.00;;;;2079066;28;20556;-49
2022/07/05 04:02:41;;;;;;;2.17;1.57;;;;;24.90;101013.00;;;;2071892;28;20699;-50
2022/07/05 04:03:42;;;;;;;1.70;1.27;;;;;24.90;101013.00;;;;2071184;28;20218;-50
2022/07/05 04:04:42;;;;;;;1.77;1.50;;;;;24.90;101008.00;;;;2070573;28;20230;-49
2022/07/05 04:05:42;;;;;;;1.93;1.27;;;;;24.90;101006.00;;;;2071297;28;20268;-50
2022/07/05 04:06:43;;;;;;;2.03;1.60;;;;;24.90;101008.00;;;;2071168;28;20214;-49
2022/07/05 04:07:50;;;;;;;2.00;1.80;;;;;24.90;101012.00;;;;2070460;28;20221;-50
2022/07/05 04:08:50;;;;;;;1.10;1.00;;;;;24.90;101014.00;;;;2071122;28;20250;-49
2022/07/05 04:09:50;;;;;;;1.70;1.60;;;;;24.90;101011.00;;;;2070969;28;20277;-50
2022/07/05 04:10:51;;;;;;;2.43;1.50;;;;;24.90;101023.00;;;;2071035;28;20588;-50
2022/07/05 04:11:51;;;;;;;1.47;1.33;;;;;24.90;101016.00;;;;2071159;28;20214;-50
2022/07/05 04:12:51;;;;;;;2.20;1.53;;;;;24.90;101007.00;;;;2071100;28;20632;-49
2022/07/05 04:13:52;;;;;;;2.73;1.63;;;;;24.90;101011.00;;;;2070483;28;20752;-50
2022/07/05 04:14:52;;;;;;;2.30;1.40;;;;;24.90;101015.00;;;;2070411;28;20686;-49
2022/07/05 04:15:55;;;;;;;3.73;1.50;;;;;24.90;101014.00;;;;2071094;28;20683;-50
2022/07/05 04:16:55;;;;;;;2.65;1.30;;;;;24.90;101015.00;;;;2071029;28;20655;-49
2022/07/05 04:17:56;;;;;;;1.80;1.60;;;;;24.90;101022.00;;;;2070153;28;20226;-50
2022/07/05 04:18:56;;;;;;;1.23;1.13;;;;;24.90;101017.00;;;;2071163;28;20218;-49
2022/07/05 04:19:56;;;;;;;1.30;1.20;;;;;24.90;101018.00;;;;2070743;28;20249;-49
2022/07/05 04:20:57;;;;;;;1.60;1.50;;;;;24.90;101012.00;;;;2070852;28;20744;-50
2022/07/05 04:21:57;;;;;;;1.50;1.40;;;;;24.90;101013.00;;;;2070972;28;20706;-50
2022/07/05 04:22:57;;;;;;;1.70;1.30;;;;;24.90;101016.00;;;;2070994;28;20773;-50
2022/07/05 04:23:58;;;;;;;1.93;1.77;;;;;24.90;101019.00;;;;2070788;28;20308;-50
2022/07/05 04:25:16;;;;;;;1.70;1.30;;;;;24.90;101021.00;;;;2070971;28;20222;-50
2022/07/05 04:26:17;;;;;;;1.60;1.50;;;;;24.90;101027.00;;;;2070601;28;20217;-49
2022/07/05 04:27:17;;;;;;;1.55;1.25;;;;;24.90;101019.00;;;;2070357;28;20221;-49
2022/07/05 04:28:17;;;;;;;1.73;1.60;;;;;24.90;101021.00;;;;2069974;28;20214;-49
2022/07/05 04:29:18;;;;;;;2.27;1.40;;;;;24.90;101022.00;;;;2070529;28;20221;-50
2022/07/05 04:30:19;;;;;;;1.57;1.30;;;;;24.90;101029.00;;;;2071012;28;20242;-49
2022/07/05 04:31:19;;;;;;;2.08;1.50;;;;;24.90;101025.00;;;;2071041;28;20214;-50
2022/07/05 04:32:20;;;;;;;2.10;1.40;;;;;24.90;101028.00;;;;2072883;28;20241;-49
2022/07/05 04:33:20;;;;;;;2.37;1.60;;;;;24.90;101030.00;;;;2076075;28;20212;-50
2022/07/05 04:34:20;;;;;;;1.60;1.23;;;;;24.90;101035.00;;;;2070813;28;20210;-50
2022/07/05 04:35:21;;;;;;;1.50;1.30;;;;;24.90;101033.00;;;;2071046;28;20270;-50
2022/07/05 04:36:21;;;;;;;1.50;1.40;;;;;24.90;101028.00;;;;2071022;28;20650;-49
2022/07/05 04:37:21;;;;;;;1.73;1.27;;;;;24.90;101021.00;;;;2069091;28;20248;-50
2022/07/05 04:38:22;;;;;;;1.60;1.50;;;;;24.90;101032.00;;;;2062042;28;20215;-49
2022/07/05 04:39:22;;;;;;;1.93;1.47;;;;;24.90;101033.00;;;;2062695;28;20214;-50
2022/07/05 04:40:23;;;;;;;1.70;1.60;;;;;24.90;101031.00;;;;2076401;28;20216;-50
2022/07/05 04:41:23;;;;;;;2.30;1.50;;;;;24.90;101030.00;;;;2070101;28;20268;-49
2022/07/05 04:42:23;;;;;;;1.50;1.40;;;;;25.00;101027.00;;;;2071036;28;20210;-49
2022/07/05 04:43:24;;;;;;;1.90;1.60;;;;;24.90;101034.00;;;;2070776;28;20222;-49
2022/07/05 04:44:24;;;;;;;2.93;1.60;;;;;24.60;101030.00;;;;2069333;28;20242;-50
2022/07/05 04:45:24;;;;;;;1.60;1.40;;;;;25.00;101035.00;;;;2070693;28;20267;-49
2022/07/05 04:46:25;;;;;;;2.20;1.43;;;;;25.00;101032.00;;;;2073939;28;20244;-49
2022/07/05 04:47:25;;;;;;;2.57;1.87;;;;;25.00;101038.00;;;;2078226;28;20267;-50
2022/07/05 04:48:26;;;;;;;2.33;1.50;;;;;25.00;101033.00;;;;2079071;28;20272;-49
2022/07/05 04:49:26;;;;;;;2.40;1.70;;;;;25.00;101037.00;;;;2078985;28;20232;-50
2022/07/05 04:50:27;;;;;;;2.30;1.70;;;;;25.00;101039.00;;;;2078657;28;20214;-50
2022/07/05 04:51:28;;;;;;;3.28;1.70;;;;;25.00;101038.00;;;;2071345;28;20241;-49
2022/07/05 04:52:28;;;;;;;2.00;1.70;;;;;25.00;101042.00;;;;2070757;28;20233;-49
2022/07/05 04:53:28;;;;;;;2.13;1.50;;;;;25.00;101040.00;;;;2072778;28;20210;-49
2022/07/05 04:54:28;;;;;;;1.80;1.70;;;;;25.00;101037.00;;;;2078885;28;20212;-49
2022/07/05 04:55:29;;;;;;;2.87;1.80;;;;;25.00;101037.00;;;;2071558;28;20202;-49
2022/07/05 04:56:29;;;;;;;2.80;1.63;;;;;25.00;101043.00;;;;2078829;28;20215;-49
2022/07/05 04:57:39;;;;;;;2.07;1.53;;;;;25.00;101038.00;;;;2077845;28;20241;-49
2022/07/05 04:58:39;;;;;;;1.95;1.33;;;;;25.00;101044.00;;;;2078845;28;20221;-49
2022/07/05 04:59:40;;;;;;;2.50;1.73;;;;;25.00;101042.00;;;;2078953;28;20240;-50
2022/07/05 05:00:40;;;;;;;4.37;1.37;;;;;25.00;101043.00;;;;2078936;28;20248;-50
2022/07/05 05:01:40;;;;;;;1.70;1.30;;;;;25.00;101042.00;;;;2078732;28;20213;-49
2022/07/05 05:02:41;;;;;;;3.43;1.90;;;;;25.00;101040.00;;;;2078875;28;20241;-49